Time;durP1;ratioP1;P1;durP2;ratioP2;P2;SDS_P1;SDS_P2;PMS_P1;PMS_P2;Temp;Humidity;BMP_temperature;BMP_pressure;BME280_temperature;BME280_humidity;BME280_pressure;Samples;Min_cycle;Max_cycle;Signal;HPM_P1;HPM_P2
2022/11/26 00:00:49;;;;;;;179.10;93.40;;;;;;;2.62;90.47;99339.48;87480;1282;22676;-71
2022/11/26 00:03:03;;;;;;;173.20;88.90;;;;;;;2.61;90.29;99337.21;87319;1274;98457;-72
2022/11/26 00:05:04;;;;;;;178.30;88.90;;;;;;;2.62;90.51;99332.52;87447;1284;23353;-74
2022/11/26 00:07:09;;;;;;;181.00;92.30;;;;;;;2.63;90.28;99334.77;87491;1282;22630;-74
2022/11/26 00:09:14;;;;;;;175.20;89.00;;;;;;;2.64;90.35;99339.42;87509;1284;98814;-72
2022/11/26 00:11:16;;;;;;;164.10;87.00;;;;;;;2.65;90.46;99340.64;87409;1279;22539;-72
2022/11/26 00:13:26;;;;;;;176.70;91.40;;;;;;;2.66;90.15;99342.52;87446;1282;99562;-74
2022/11/26 00:15:29;;;;;;;183.20;93.90;;;;;;;2.66;90.32;99344.10;87490;1282;25121;-73
2022/11/26 00:17:33;;;;;;;179.30;92.70;;;;;;;2.67;90.38;99346.70;87481;1281;24270;-71
2022/11/26 00:19:34;;;;;;;198.70;94.40;;;;;;;2.68;90.40;99348.94;87503;1282;98023;-72
2022/11/26 00:21:38;;;;;;;175.40;90.10;;;;;;;2.69;90.37;99348.25;87419;1300;22529;-72
2022/11/26 00:23:39;;;;;;;174.70;89.40;;;;;;;2.69;90.54;99349.63;87507;1283;22499;-73
2022/11/26 00:25:47;;;;;;;171.40;86.90;;;;;;;2.69;90.36;99350.84;87442;1279;99400;-75
2022/11/26 00:27:51;;;;;;;181.50;92.00;;;;;;;2.68;90.21;99351.89;87729;1275;22492;-73
2022/11/26 00:29:52;;;;;;;183.00;92.90;;;;;;;2.69;90.35;99353.60;87645;1275;22502;-72
2022/11/26 00:31:53;;;;;;;184.40;93.70;;;;;;;2.68;90.23;99357.08;87450;1297;98048;-73
2022/11/26 00:33:55;;;;;;;177.70;92.60;;;;;;;2.68;90.42;99355.71;87524;1291;22453;-73
2022/11/26 00:36:01;;;;;;;175.80;93.00;;;;;;;2.68;90.56;99356.74;87629;1287;22754;-73
2022/11/26 00:38:03;;;;;;;183.30;94.20;;;;;;;2.68;90.27;99362.98;87476;1275;99326;-73
2022/11/26 00:40:05;;;;;;;200.50;99.60;;;;;;;2.68;90.31;99362.65;87629;1306;22488;-73
2022/11/26 00:42:09;;;;;;;226.90;105.70;;;;;;;2.68;90.30;99360.05;87724;1301;22529;-72
2022/11/26 00:44:22;;;;;;;222.50;104.20;;;;;;;2.68;90.62;99361.44;87416;1291;99513;-73
2022/11/26 00:46:24;;;;;;;228.60;107.20;;;;;;;2.68;90.20;99365.77;87570;1287;22525;-74
2022/11/26 00:48:24;;;;;;;;;;;;;;;2.68;90.37;99364.73;87431;1308;23817;-74
2022/11/26 00:50:27;;;;;;;239.70;100.20;;;;;;;2.67;90.39;99364.56;87579;1284;85811;-73
2022/11/26 00:52:33;;;;;;;245.70;104.70;;;;;;;2.66;90.47;99363.17;87629;1284;22499;-72
2022/11/26 00:54:34;;;;;;;262.80;108.80;;;;;;;2.66;90.55;99366.30;87777;1288;22643;-74
2022/11/26 00:56:37;;;;;;;257.30;113.80;;;;;;;2.66;90.33;99368.39;87928;1292;99304;-72
2022/11/26 00:58:38;;;;;;;237.60;107.40;;;;;;;2.67;90.50;99368.03;88408;1295;22302;-72
2022/11/26 01:00:39;;;;;;;214.00;104.80;;;;;;;2.66;90.46;99367.16;88404;1306;22273;-73
2022/11/26 01:02:40;;;;;;;227.50;106.30;;;;;;;2.66;90.32;99369.94;88244;1308;98326;-73
2022/11/26 01:04:42;;;;;;;234.00;102.40;;;;;;;2.68;90.37;99370.98;88255;1284;22343;-71
2022/11/26 01:06:45;;;;;;;220.60;105.20;;;;;;;2.68;90.36;99373.56;88227;1290;22894;-72
2022/11/26 01:08:46;;;;;;;219.40;106.80;;;;;;;2.69;90.39;99369.23;88110;1304;98473;-72
2022/11/26 01:10:47;;;;;;;226.10;104.60;;;;;;;2.69;90.17;99371.82;87779;1284;23195;-74
2022/11/26 01:12:50;;;;;;;226.90;106.80;;;;;;;2.69;90.24;99375.65;87540;1309;22542;-73
2022/11/26 01:14:51;;;;;;;211.30;104.60;;;;;;;2.69;90.28;99377.56;87477;1286;101199;-73
2022/11/26 01:16:55;;;;;;;220.60;101.50;;;;;;;2.69;90.48;99378.94;87572;1290;22494;-74
2022/11/26 01:18:58;;;;;;;216.10;103.90;;;;;;;2.70;90.52;99381.52;87562;1292;22612;-73
2022/11/26 01:20:59;;;;;;;197.60;99.20;;;;;;;2.70;90.34;99380.31;87469;1286;98183;-72
2022/11/26 01:23:00;;;;;;;227.20;108.00;;;;;;;2.72;90.62;99383.09;87613;1277;22508;-74
2022/11/26 01:25:01;;;;;;;212.50;103.00;;;;;;;2.72;90.38;99382.04;87466;1280;22918;-72
2022/11/26 01:27:07;;;;;;;207.50;101.20;;;;;;;2.73;90.28;99384.98;87518;1274;99387;-73
2022/11/26 01:29:14;;;;;;;196.50;99.90;;;;;;;2.74;90.42;99385.30;87597;1277;22520;-74
2022/11/26 01:31:22;;;;;;;216.60;102.10;;;;;;;2.73;90.45;99387.94;87699;1292;98197;-72
2022/11/26 01:33:23;;;;;;;219.50;104.20;;;;;;;2.72;90.35;99388.27;87676;1284;22625;-73
2022/11/26 01:35:24;;;;;;;239.20;107.80;;;;;;;2.72;90.33;99392.10;87686;1290;22966;-74
2022/11/26 01:37:25;;;;;;;238.80;107.00;;;;;;;2.72;90.23;99390.02;87293;1279;100446;-72
2022/11/26 01:39:26;;;;;;;251.10;108.00;;;;;;;2.71;90.19;99389.86;87399;1286;22535;-72
2022/11/26 01:42:13;;;;;;;231.90;108.40;;;;;;;2.72;90.48;99395.91;87423;1283;22504;-73
2022/11/26 01:44:20;;;;;;;228.50;105.90;;;;;;;2.72;90.52;99394.00;87438;1292;98395;-73
2022/11/26 01:46:21;;;;;;;236.50;108.40;;;;;;;2.72;90.69;99397.30;87492;1285;25330;-74
2022/11/26 01:48:25;;;;;;;232.40;109.60;;;;;;;2.72;90.33;99398.69;87354;1277;23015;-73
2022/11/26 01:50:35;;;;;;;230.90;107.10;;;;;;;2.72;90.34;99397.48;87377;1284;99115;-74
2022/11/26 01:52:36;;;;;;;232.60;109.00;;;;;;;2.74;90.54;99398.67;87623;1275;22638;-73
2022/11/26 01:54:41;;;;;;;243.50;113.50;;;;;;;2.74;90.31;99402.14;87581;1283;22934;-73
2022/11/26 01:56:53;;;;;;;238.00;110.00;;;;;;;2.72;90.67;99402.15;87525;1276;98805;-74
2022/11/26 01:59:09;;;;;;;228.40;108.10;;;;;;;2.72;90.44;99406.15;87428;1291;23789;-72
2022/11/26 02:01:10;;;;;;;237.00;107.40;;;;;;;2.70;90.20;99404.24;87681;1280;22440;-74
2022/11/26 02:03:11;;;;;;;242.90;108.60;;;;;;;2.70;90.57;99404.44;87574;1284;98330;-73
2022/11/26 02:05:23;;;;;;;230.10;106.20;;;;;;;2.71;90.43;99404.10;87571;1277;22769;-75
2022/11/26 02:07:24;;;;;;;227.60;103.80;;;;;;;2.72;90.57;99401.46;87526;1286;99562;-74
2022/11/26 02:09:27;;;;;;;220.10;104.90;;;;;;;2.72;90.24;99399.38;87485;1288;195874;-73
2022/11/26 02:11:28;;;;;;;225.60;103.20;;;;;;;2.73;90.26;99399.39;87590;1283;22503;-73
2022/11/26 02:13:29;;;;;;;;;;;;;;;2.74;90.28;99399.88;87241;1279;98386;-73
2022/11/26 02:15:41;;;;;;;203.50;100.90;;;;;;;2.74;90.54;99400.05;87558;1287;22957;-73
2022/11/26 02:17:50;;;;;;;216.20;103.30;;;;;;;2.75;90.37;99400.40;87583;1286;22524;-72
2022/11/26 02:20:18;;;;;;;221.20;102.80;;;;;;;2.77;90.68;99400.56;87488;1292;98249;-73
2022/11/26 02:22:58;;;;;;;223.20;97.70;;;;;;;2.77;90.58;99399.68;87564;1291;22522;-73
2022/11/26 02:25:37;;;;;;;203.40;96.10;;;;;;;2.74;90.25;99399.70;87703;1284;25430;-73
2022/11/26 02:27:48;;;;;;;213.80;97.20;;;;;;;2.73;90.16;99399.02;87723;1290;22499;-72
2022/11/26 02:30:01;;;;;;;210.60;99.70;;;;;;;2.74;90.33;99399.89;87671;1297;24098;-74
2022/11/26 02:32:11;;;;;;;202.20;94.40;;;;;;;2.75;90.30;99397.80;87648;1282;98080;-73
2022/11/26 02:34:22;;;;;;;192.00;96.20;;;;;;;2.75;90.43;99399.70;87954;1281;22796;-73
2022/11/26 02:36:39;;;;;;;218.30;99.00;;;;;;;2.75;90.55;99399.88;87677;1284;23773;-74
2022/11/26 02:38:40;;;;;;;204.60;99.60;;;;;;;2.76;90.54;99402.99;87618;1275;98717;-72
2022/11/26 02:40:43;;;;;;;192.90;94.00;;;;;;;2.76;90.19;99399.87;87789;1275;22497;-73
2022/11/26 02:42:44;;;;;;;197.50;92.20;;;;;;;2.76;90.25;99403.88;87746;1275;22461;-72
2022/11/26 02:44:45;;;;;;;187.70;94.80;;;;;;;2.74;90.17;99403.70;87738;1281;99304;-74
2022/11/26 02:46:48;;;;;;;;;;;;;;;2.72;90.39;99402.69;87543;1294;22501;-75
2022/11/26 02:48:52;;;;;;;180.70;88.20;;;;;;;2.71;90.12;99407.20;87874;1280;26632;-75
2022/11/26 02:50:57;;;;;;;195.40;95.80;;;;;;;2.71;90.40;99406.15;87657;1290;98240;-75
2022/11/26 02:53:00;;;;;;;182.80;92.20;;;;;;;2.71;90.59;99407.03;87837;1284;22494;-74
2022/11/26 02:55:05;;;;;;;186.40;90.60;;;;;;;2.70;90.25;99407.55;87794;1275;22860;-73
2022/11/26 02:57:11;;;;;;;178.90;90.70;;;;;;;2.68;90.32;99408.79;87673;1282;98154;-74
2022/11/26 02:59:13;;;;;;;176.90;89.70;;;;;;;2.66;90.24;99407.24;87613;1287;22543;-73
2022/11/26 03:01:28;;;;;;;145.70;79.50;;;;;;;2.68;90.09;99408.11;87716;1289;22939;-73
2022/11/26 03:03:35;;;;;;;148.30;75.40;;;;;;;2.68;90.19;99408.09;87782;1278;22693;-73
2022/11/26 03:05:39;;;;;;;144.30;75.40;;;;;;;2.70;90.30;99407.04;87708;1285;22472;-74
2022/11/26 03:07:41;;;;;;;125.70;67.90;;;;;;;2.71;90.45;99405.64;87526;1292;98750;-75
2022/11/26 03:09:52;;;;;;;130.80;68.60;;;;;;;2.74;90.52;99405.45;87651;1285;22416;-74
2022/11/26 03:11:53;;;;;;;;;;;;;;;2.79;90.52;99404.54;87700;1282;22493;-74
2022/11/26 03:13:54;;;;;;;118.80;67.10;;;;;;;2.82;90.58;99411.44;87677;1283;85141;-74
2022/11/26 03:15:56;;;;;;;124.10;66.70;;;;;;;2.87;90.80;99409.83;87763;1292;22530;-73
2022/11/26 03:17:56;;;;;;;;;;;;;;;2.91;90.52;99411.52;87735;1284;24000;-73
2022/11/26 03:19:58;;;;;;;119.80;66.10;;;;;;;2.96;90.76;99411.13;87588;1289;85243;-73
2022/11/26 03:21:59;;;;;;;119.30;66.30;;;;;;;3.00;90.65;99413.69;87736;1284;22515;-73
2022/11/26 03:24:00;;;;;;;126.70;69.90;;;;;;;3.04;90.88;99411.21;87880;1288;23022;-73
2022/11/26 03:26:01;;;;;;;120.20;66.70;;;;;;;3.07;90.81;99414.30;87422;1293;99882;-73
2022/11/26 03:28:03;;;;;;;119.50;63.20;;;;;;;3.10;90.70;99411.49;87567;1280;22486;-74
2022/11/26 03:30:05;;;;;;;119.30;66.80;;;;;;;3.13;90.80;99411.82;87393;1287;23150;-74
2022/11/26 03:32:06;;;;;;;119.80;66.50;;;;;;;3.16;90.70;99413.70;87653;1275;98147;-75
2022/11/26 03:34:07;;;;;;;118.30;64.90;;;;;;;3.19;90.61;99414.54;87922;1275;22481;-74
2022/11/26 03:36:08;;;;;;;122.90;65.20;;;;;;;3.22;90.65;99414.66;87734;1284;22762;-75
2022/11/26 03:38:09;;;;;;;129.20;63.70;;;;;;;3.25;90.72;99415.86;87702;1284;98063;-74
2022/11/26 03:40:11;;;;;;;121.20;63.90;;;;;;;3.27;90.65;99415.13;87814;1292;22464;-74
2022/11/26 03:42:12;;;;;;;122.30;64.50;;;;;;;3.29;90.89;99419.63;87838;1282;25379;-74
2022/11/26 03:44:15;;;;;;;109.50;61.40;;;;;;;3.31;90.93;99417.34;87833;1285;99387;-75
2022/11/26 03:46:16;;;;;;;115.60;64.60;;;;;;;3.33;90.78;99418.54;87732;1284;22553;-74
2022/11/26 03:48:17;;;;;;;110.40;63.20;;;;;;;3.35;90.92;99420.77;87757;1292;22485;-74
2022/11/26 03:50:18;;;;;;;116.40;64.40;;;;;;;3.38;90.80;99421.27;87571;1284;98417;-73
2022/11/26 03:52:19;;;;;;;118.70;65.00;;;;;;;3.39;90.63;99421.25;87729;1284;22510;-79
2022/11/26 03:54:21;;;;;;;131.00;65.40;;;;;;;3.40;90.69;99425.05;87586;1285;22591;-75
2022/11/26 03:56:22;;;;;;;130.10;63.00;;;;;;;3.42;90.77;99423.14;87670;1282;98212;-76
2022/11/26 03:58:23;;;;;;;111.80;64.30;;;;;;;3.43;90.88;99424.00;87688;1299;22794;-74
2022/11/26 04:00:24;;;;;;;114.20;63.40;;;;;;;3.44;90.67;99429.02;87642;1283;22525;-74
2022/11/26 04:02:25;;;;;;;108.90;64.80;;;;;;;3.44;90.76;99430.40;87573;1285;98632;-76
2022/11/26 04:04:26;;;;;;;109.50;61.40;;;;;;;3.44;90.74;99429.19;87684;1284;22420;-74
2022/11/26 04:06:28;;;;;;;117.00;63.30;;;;;;;3.44;90.79;99432.31;87661;1282;22563;-75
2022/11/26 04:08:29;;;;;;;;;;;;;;;3.44;90.52;99433.18;87457;1284;98629;-76
2022/11/26 04:10:30;;;;;;;118.90;63.90;;;;;;;3.41;90.63;99435.11;87668;1284;22446;-75
2022/11/26 04:12:31;;;;;;;109.20;62.20;;;;;;;3.39;90.41;99435.65;87862;1290;22546;-73
2022/11/26 04:14:32;;;;;;;106.90;62.10;;;;;;;3.38;90.44;99435.33;87683;1284;98267;-75
2022/11/26 04:16:33;;;;;;;121.10;62.00;;;;;;;3.33;90.28;99431.91;87726;1291;22654;-75
2022/11/26 04:18:34;;;;;;;118.90;65.10;;;;;;;3.35;90.36;99439.54;87462;1280;22463;-74
2022/11/26 04:20:35;;;;;;;128.90;64.40;;;;;;;3.35;90.26;99441.95;87333;1291;98993;-75
2022/11/26 04:22:37;;;;;;;122.90;69.00;;;;;;;3.35;90.43;99444.58;87439;1283;22518;-75
2022/11/26 04:24:38;;;;;;;117.70;66.50;;;;;;;3.34;90.31;99446.48;87530;1284;22794;-75
2022/11/26 04:26:39;;;;;;;108.40;65.80;;;;;;;3.30;90.61;99444.27;87398;1281;98136;-75
2022/11/26 04:28:40;;;;;;;111.90;65.10;;;;;;;3.33;90.55;99449.11;87464;1300;23320;-73
2022/11/26 04:30:42;;;;;;;116.30;62.60;;;;;;;3.32;90.56;99447.55;87416;1295;23844;-76
2022/11/26 04:32:43;;;;;;;111.30;62.40;;;;;;;3.29;90.35;99448.12;87479;1281;98418;-76
2022/11/26 04:34:44;;;;;;;;;;;;;;;3.14;90.25;99432.12;87588;1306;23676;-75
2022/11/26 04:36:45;;;;;;;115.60;66.50;;;;;;;3.18;90.32;99452.04;87682;1283;22478;-74
2022/11/26 04:38:46;;;;;;;110.80;63.50;;;;;;;3.16;90.21;99450.86;87809;1290;98176;-73
2022/11/26 04:40:48;;;;;;;109.90;63.60;;;;;;;3.14;90.26;99449.48;88081;1286;22351;-75
2022/11/26 04:42:49;;;;;;;107.40;64.10;;;;;;;3.12;90.17;99448.11;87401;1276;22473;-75
2022/11/26 04:44:51;;;;;;;109.40;62.30;;;;;;;3.11;90.19;99450.73;87438;1291;98197;-75
2022/11/26 04:46:52;;;;;;;108.40;64.80;;;;;;;3.10;90.35;99453.00;87473;1284;22767;-76
2022/11/26 04:48:54;;;;;;;111.50;60.90;;;;;;;3.10;90.37;99457.52;87530;1283;23189;-75
2022/11/26 04:50:55;;;;;;;104.70;60.90;;;;;;;3.07;90.52;99461.20;87427;1284;98289;-74
2022/11/26 04:52:56;;;;;;;104.20;60.20;;;;;;;3.05;90.43;99467.30;87315;1287;22551;-74
2022/11/26 04:54:57;;;;;;;;;;;;;;;3.02;90.29;99467.31;87304;1284;23776;-76
2022/11/26 04:56:58;;;;;;;92.90;53.50;;;;;;;2.98;90.29;99469.25;87099;1284;83973;-75
2022/11/26 04:58:59;;;;;;;100.30;57.80;;;;;;;2.94;90.32;99471.55;87135;1277;22707;-75
2022/11/26 05:01:00;;;;;;;93.50;55.00;;;;;;;2.88;90.13;99473.52;87102;1291;22534;-75
2022/11/26 05:03:01;;;;;;;98.90;55.10;;;;;;;2.85;90.07;99473.02;87058;1277;99273;-75
2022/11/26 05:05:02;;;;;;;107.80;56.10;;;;;;;2.80;90.15;99475.84;87027;1291;22504;-75
2022/11/26 05:07:03;;;;;;;100.90;58.00;;;;;;;2.77;90.09;99479.52;87111;1277;22497;-74
2022/11/26 05:09:04;;;;;;;98.20;57.50;;;;;;;2.71;90.10;99479.91;86990;1283;99539;-74
2022/11/26 05:11:06;;;;;;;94.90;57.10;;;;;;;2.68;89.95;99482.70;87010;1276;24369;-76
2022/11/26 05:13:07;;;;;;;96.00;55.10;;;;;;;2.64;90.31;99484.14;87006;1293;22497;-75
2022/11/26 05:15:08;;;;;;;100.60;57.30;;;;;;;2.62;90.27;99482.25;87071;1277;99080;-75
2022/11/26 05:17:09;;;;;;;;;;;;;;;2.58;90.14;99490.59;87099;1283;22712;-75
2022/11/26 05:19:10;;;;;;;111.20;59.00;;;;;;;2.54;90.32;99490.61;87097;1292;22442;-76
2022/11/26 05:21:11;;;;;;;96.80;54.90;;;;;;;2.52;90.36;99496.70;86934;1283;98320;-74
2022/11/26 05:23:12;;;;;;;103.60;57.70;;;;;;;2.51;90.31;99497.91;87123;1283;23909;-74
2022/11/26 05:25:13;;;;;;;110.00;63.20;;;;;;;2.49;90.15;99498.81;86890;1286;26503;-75
2022/11/26 05:27:14;;;;;;;128.30;69.20;;;;;;;2.48;90.50;99501.08;86999;1275;98059;-76
2022/11/26 05:29:15;;;;;;;136.10;71.70;;;;;;;2.47;90.41;99498.31;87045;1292;25410;-75
2022/11/26 05:31:16;;;;;;;145.10;71.40;;;;;;;2.50;90.33;99505.57;87211;1281;22109;-76
2022/11/26 05:33:17;;;;;;;149.40;77.20;;;;;;;2.50;90.20;99506.61;87039;1277;97847;-75
2022/11/26 05:35:18;;;;;;;159.60;78.00;;;;;;;2.48;90.15;99507.83;86999;1308;22490;-74
2022/11/26 05:37:19;;;;;;;160.40;77.50;;;;;;;2.48;90.21;99509.41;87003;1277;22745;-75
2022/11/26 05:39:20;;;;;;;152.80;79.60;;;;;;;2.47;90.21;99505.58;87145;1283;99080;-76
2022/11/26 05:41:21;;;;;;;149.20;77.10;;;;;;;2.46;90.36;99510.45;87139;1280;22454;-74
2022/11/26 05:43:22;;;;;;;150.40;73.80;;;;;;;2.45;90.18;99511.15;87027;1276;22802;-75
2022/11/26 05:45:23;;;;;;;146.00;71.90;;;;;;;2.44;90.11;99514.45;87258;1282;22483;-75
2022/11/26 05:47:25;;;;;;;151.30;73.10;;;;;;;2.42;90.24;99516.02;87133;1286;24246;-76
2022/11/26 05:49:25;;;;;;;139.70;71.60;;;;;;;2.40;90.38;99520.20;87065;1285;98385;-74
2022/11/26 05:51:26;;;;;;;140.10;73.10;;;;;;;2.37;90.38;99521.45;87183;1281;22621;-75
2022/11/26 05:53:27;;;;;;;131.10;68.00;;;;;;;2.25;90.15;99513.53;87060;1285;22491;-75
2022/11/26 05:55:28;;;;;;;130.50;68.60;;;;;;;2.30;90.27;99523.20;87009;1282;99453;-75
2022/11/26 05:57:29;;;;;;;126.70;66.20;;;;;;;2.28;90.11;99524.27;87140;1290;25333;-76
2022/11/26 05:59:31;;;;;;;128.30;65.00;;;;;;;2.25;90.11;99525.83;87258;1275;24259;-75
2022/11/26 06:01:32;;;;;;;131.10;63.90;;;;;;;2.23;90.28;99525.50;86882;1300;98453;-74
2022/11/26 06:03:33;;;;;;;120.50;62.70;;;;;;;2.18;89.97;99528.64;87108;1284;22500;-75
2022/11/26 06:05:33;;;;;;;112.80;61.20;;;;;;;2.14;90.04;99530.92;86966;1292;22506;-75
2022/11/26 06:07:35;;;;;;;111.10;62.00;;;;;;;2.11;90.04;99532.32;87135;1290;101145;-76
2022/11/26 06:09:35;;;;;;;;;;;;;;;2.09;90.27;99534.75;87206;1281;22461;-75
2022/11/26 06:11:36;;;;;;;105.10;54.70;;;;;;;2.02;90.14;99534.45;87252;1282;22599;-76
2022/11/26 06:13:38;;;;;;;98.50;51.80;;;;;;;1.98;90.26;99532.38;86885;1287;98312;-78
2022/11/26 06:15:39;;;;;;;99.90;52.20;;;;;;;1.97;90.04;99535.52;87139;1284;22565;-78
2022/11/26 06:17:40;;;;;;;98.50;54.00;;;;;;;1.94;89.97;99535.00;87009;1285;22817;-76
2022/11/26 06:19:41;;;;;;;110.30;53.20;;;;;;;1.92;90.10;99536.92;87026;1292;99470;-77
2022/11/26 06:21:42;;;;;;;95.50;52.60;;;;;;;1.86;89.78;99535.02;86947;1287;23960;-75
2022/11/26 06:23:43;;;;;;;100.80;52.60;;;;;;;1.84;90.12;99541.80;87210;1282;22985;-75
2022/11/26 06:25:44;;;;;;;99.40;53.00;;;;;;;1.81;90.02;99544.06;87091;1284;98273;-77
2022/11/26 06:27:45;;;;;;;114.10;54.70;;;;;;;1.76;90.19;99543.90;87025;1286;23073;-77
2022/11/26 06:29:46;;;;;;;107.30;56.00;;;;;;;1.75;90.25;99546.51;87148;1275;22521;-77
2022/11/26 06:31:47;;;;;;;104.40;57.30;;;;;;;1.74;90.01;99553.63;87023;1283;98036;-78
2022/11/26 06:33:53;;;;;;;107.40;56.90;;;;;;;1.71;89.96;99553.27;86967;1291;25517;-77
2022/11/26 06:35:59;;;;;;;92.70;53.40;;;;;;;1.70;90.22;99553.27;87009;1291;22510;-77
2022/11/26 06:38:00;;;;;;;105.60;54.40;;;;;;;1.68;90.04;99551.03;87004;1288;97940;-77
2022/11/26 06:40:01;;;;;;;105.80;55.90;;;;;;;1.67;89.82;99555.02;86825;1293;22575;-74
2022/11/26 06:42:02;;;;;;;117.40;55.90;;;;;;;1.68;90.12;99553.80;87056;1290;22504;-78
2022/11/26 06:44:03;;;;;;;118.70;57.80;;;;;;;1.68;90.41;99551.21;86749;1293;98728;-78
2022/11/26 06:46:07;;;;;;;105.00;57.80;;;;;;;1.68;90.34;99549.30;86948;1294;24242;-77
2022/11/26 06:48:08;;;;;;;118.10;61.80;;;;;;;1.70;90.34;99552.06;87078;1285;22517;-78
2022/11/26 06:50:09;;;;;;;119.70;64.00;;;;;;;1.73;90.24;99556.05;86948;1284;98732;-77
2022/11/26 06:52:11;;;;;;;122.30;59.40;;;;;;;1.76;90.40;99559.85;87130;1291;22793;-78
2022/11/26 06:54:12;;;;;;;140.10;61.50;;;;;;;1.78;90.48;99556.37;86941;1284;24546;-77
2022/11/26 06:56:15;;;;;;;126.10;61.30;;;;;;;1.82;90.21;99557.05;86859;1278;98087;-76
2022/11/26 06:58:17;;;;;;;126.10;59.20;;;;;;;1.85;90.62;99562.41;87075;1275;24375;-77
2022/11/26 07:00:19;;;;;;;127.90;64.00;;;;;;;1.88;90.35;99568.30;87147;1281;22867;-78
2022/11/26 07:02:20;;;;;;;124.50;63.10;;;;;;;1.92;90.22;99573.48;87017;1285;100087;-78
2022/11/26 07:04:22;;;;;;;110.10;59.60;;;;;;;1.95;90.33;99573.47;87140;1284;22508;-77
2022/11/26 07:06:24;;;;;;;;;;;;;;;2.00;90.79;99582.11;87097;1284;22487;-78
2022/11/26 07:08:25;;;;;;;124.20;56.90;;;;;;;2.05;90.64;99587.13;87194;1287;84056;-79
2022/11/26 07:10:27;;;;;;;114.40;57.10;;;;;;;2.09;90.48;99591.79;87126;1283;22499;-76
2022/11/26 07:12:29;;;;;;;118.60;60.50;;;;;;;2.13;90.58;99597.15;87194;1288;24218;-78
2022/11/26 07:14:29;;;;;;;133.80;60.90;;;;;;;2.18;90.71;99596.95;86977;1292;98273;-77
2022/11/26 07:16:30;;;;;;;133.20;65.00;;;;;;;2.23;90.44;99597.63;87303;1275;22987;-77
2022/11/26 07:18:32;;;;;;;135.30;65.90;;;;;;;2.27;90.66;99595.88;87153;1282;22527;-77
2022/11/26 07:20:35;;;;;;;121.80;62.50;;;;;;;2.33;90.67;99600.36;86836;1291;98198;-78
2022/11/26 07:22:36;;;;;;;125.30;62.20;;;;;;;2.37;90.65;99600.69;87076;1285;23317;-77
2022/11/26 07:24:37;;;;;;;115.10;56.20;;;;;;;2.41;90.91;99602.06;87173;1281;22371;-78
2022/11/26 07:26:38;;;;;;;112.00;60.30;;;;;;;2.45;90.79;99604.12;86921;1285;98094;-77
2022/11/26 07:28:39;;;;;;;117.80;59.70;;;;;;;2.50;90.69;99599.93;86965;1301;22501;-77
2022/11/26 07:30:40;;;;;;;106.50;58.60;;;;;;;2.55;90.87;99599.38;87163;1282;24251;-76
2022/11/26 07:32:41;;;;;;;123.70;60.80;;;;;;;2.59;91.14;99594.33;86912;1290;98253;-76
2022/11/26 07:34:42;;;;;;;100.90;54.40;;;;;;;2.63;90.66;99596.91;87056;1292;22515;-77
2022/11/26 07:36:44;;;;;;;115.90;59.40;;;;;;;2.67;90.76;99601.05;87030;1281;22493;-78
2022/11/26 07:38:45;;;;;;;120.20;61.30;;;;;;;2.72;90.85;99610.91;87149;1289;99381;-77
2022/11/26 07:40:46;;;;;;;117.20;57.10;;;;;;;2.77;90.78;99609.48;86992;1301;22515;-75
2022/11/26 07:42:47;;;;;;;106.30;56.60;;;;;;;2.81;90.80;99611.89;87038;1284;22586;-76
2022/11/26 07:44:48;;;;;;;114.10;60.60;;;;;;;2.86;90.84;99611.52;86891;1283;99036;-76
2022/11/26 07:46:49;;;;;;;;;;;;;;;2.92;90.62;99618.08;87111;1283;23909;-76
2022/11/26 07:48:50;;;;;;;111.20;57.60;;;;;;;2.96;90.88;99611.10;87010;1284;26477;-78
2022/11/26 07:50:51;;;;;;;;;;;;;;;3.00;90.85;99616.46;86967;1294;98058;-77
2022/11/26 07:52:52;;;;;;;108.70;58.30;;;;;;;3.04;90.91;99612.95;87064;1291;25241;-77
2022/11/26 07:54:53;;;;;;;115.30;58.60;;;;;;;3.09;90.87;99611.88;87029;1291;22497;-77
2022/11/26 07:56:54;;;;;;;112.50;57.60;;;;;;;3.13;90.77;99609.05;86880;1276;98795;-77
2022/11/26 07:58:55;;;;;;;;;;;;;;;3.18;90.86;99615.80;87120;1287;22527;-78
2022/11/26 08:00:56;;;;;;;105.30;54.10;;;;;;;3.22;90.82;99616.46;87017;1283;24909;-77
2022/11/26 08:02:58;;;;;;;108.20;55.10;;;;;;;3.25;90.87;99611.92;86906;1293;98760;-78
2022/11/26 08:04:59;;;;;;;103.20;53.30;;;;;;;3.31;90.77;99615.88;87186;1285;23086;-78
2022/11/26 08:07:00;;;;;;;104.20;57.30;;;;;;;3.35;90.81;99621.74;87021;1290;22588;-76
2022/11/26 08:09:03;;;;;;;103.80;59.20;;;;;;;3.38;90.88;99618.60;86925;1290;98052;-77
2022/11/26 08:11:13;;;;;;;97.80;56.90;;;;;;;3.39;90.83;99626.23;87156;1283;25388;-76
2022/11/26 08:13:14;;;;;;;104.70;57.00;;;;;;;3.42;90.88;99631.08;87086;1291;23364;-77
2022/11/26 08:15:15;;;;;;;111.90;62.00;;;;;;;3.44;90.80;99630.70;86915;1291;99093;-77
2022/11/26 08:17:16;;;;;;;112.30;61.80;;;;;;;3.46;90.88;99627.05;87167;1284;22568;-76
2022/11/26 08:19:17;;;;;;;;;;;;;;;3.49;90.91;99629.44;87043;1290;25837;-76
2022/11/26 08:21:18;;;;;;;100.20;55.40;;;;;;;3.49;90.90;99631.87;86987;1291;85071;-78
2022/11/26 08:23:20;;;;;;;98.70;57.10;;;;;;;3.51;90.64;99628.73;87072;1285;22976;-77
2022/11/26 08:25:20;;;;;;;96.20;54.90;;;;;;;3.54;90.80;99635.48;86972;1291;22489;-75
2022/11/26 08:27:21;;;;;;;103.70;56.60;;;;;;;3.55;90.74;99637.04;87112;1284;98649;-77
2022/11/26 08:29:22;;;;;;;97.00;57.90;;;;;;;3.57;90.84;99639.97;87169;1283;22453;-77
2022/11/26 08:31:26;;;;;;;105.30;57.40;;;;;;;3.59;90.76;99639.42;87050;1282;98055;-75
2022/11/26 08:33:27;;;;;;;107.00;59.30;;;;;;;3.62;90.85;99641.31;86971;1277;22467;-78
2022/11/26 08:35:28;;;;;;;107.50;60.10;;;;;;;3.64;90.67;99642.85;87107;1283;22571;-76
2022/11/26 08:37:29;;;;;;;110.30;65.20;;;;;;;3.65;90.78;99642.84;86930;1286;98348;-79
2022/11/26 08:39:30;;;;;;;103.20;61.40;;;;;;;3.68;90.78;99644.91;86948;1289;24370;-79
2022/11/26 08:41:31;;;;;;;109.60;64.00;;;;;;;3.70;90.84;99646.45;86958;1294;23010;-80
2022/11/26 08:43:34;;;;;;;113.80;62.20;;;;;;;3.72;90.76;99645.74;87108;1290;99917;-80
2022/11/26 08:45:35;;;;;;;105.30;62.60;;;;;;;3.74;90.84;99643.80;87087;1284;22477;-77
2022/11/26 08:47:36;;;;;;;110.90;62.40;;;;;;;3.76;90.92;99647.61;87365;1289;22477;-78
2022/11/26 08:49:37;;;;;;;106.40;61.70;;;;;;;3.79;90.83;99648.45;87270;1280;98163;-79
2022/11/26 08:51:38;;;;;;;102.50;61.70;;;;;;;3.81;90.74;99646.17;87136;1311;24282;-80
2022/11/26 08:53:39;;;;;;;112.80;60.70;;;;;;;3.83;90.81;99649.45;87919;1305;22504;-79
2022/11/26 08:55:41;;;;;;;110.40;60.70;;;;;;;3.85;90.74;99650.48;88305;1302;98492;-80
2022/11/26 08:57:42;;;;;;;95.90;59.40;;;;;;;3.86;90.69;99657.95;88267;1307;22566;-81
2022/11/26 08:59:44;;;;;;;106.80;57.30;;;;;;;3.88;90.79;99659.13;88442;1303;22499;-79
2022/11/26 09:01:45;;;;;;;102.40;56.60;;;;;;;3.88;90.81;99655.66;88239;1307;98062;-80
2022/11/26 09:03:47;;;;;;;96.10;55.00;;;;;;;3.94;90.79;99660.48;88409;1310;22264;-81
2022/11/26 09:05:48;;;;;;;98.30;54.10;;;;;;;3.96;90.78;99661.86;88374;1294;22570;-80
2022/11/26 09:07:49;;;;;;;106.50;59.80;;;;;;;3.98;90.63;99662.01;88181;1309;98349;-80
2022/11/26 09:09:50;;;;;;;103.70;57.00;;;;;;;4.01;90.77;99665.11;88160;1315;22614;-82
2022/11/26 09:11:56;;;;;;;99.90;57.50;;;;;;;4.04;90.62;99663.51;88235;1303;22894;-81
2022/11/26 09:13:58;;;;;;;105.70;58.10;;;;;;;4.06;90.75;99668.34;88170;1294;98253;-81
2022/11/26 09:15:59;;;;;;;106.60;58.70;;;;;;;4.01;90.75;99655.01;88191;1313;23018;-80
2022/11/26 09:18:02;;;;;;;102.30;59.60;;;;;;;4.12;90.69;99674.20;88031;1295;22544;-84
2022/11/26 09:20:04;;;;;;;97.50;59.10;;;;;;;4.14;90.74;99677.30;87699;1304;98067;-85
2022/11/26 09:22:05;;;;;;;112.00;62.10;;;;;;;4.16;90.72;99674.52;87445;1295;22481;-85
2022/11/26 09:24:06;;;;;;;104.30;60.30;;;;;;;4.17;90.61;99676.06;87413;1311;23808;-85
2022/11/26 09:26:07;;;;;;;117.30;62.80;;;;;;;4.17;90.54;99678.48;87208;1308;97999;-84
2022/11/26 09:28:08;;;;;;;;;;;;;;;4.19;90.56;99683.52;87817;1310;22561;-83